Time;durP1;ratioP1;P1;durP2;ratioP2;P2;SDS_P1;SDS_P2;PMS_P1;PMS_P2;Temp;Humidity;BMP_temperature;BMP_pressure;BME280_temperature;BME280_humidity;BME280_pressure;Samples;Min_cycle;Max_cycle;Signal;HPM_P1;HPM_P2
2022/09/02 00:00:41;;;;;;;0.70;0.70;;;;;;;;;;5065896;28;21096;-77
2022/09/02 00:03:08;;;;;;;0.70;0.70;;;;;;;;;;5062819;28;20448;-76
2022/09/02 00:05:35;;;;;;;1.10;0.90;;;;;;;;;;5067005;28;20449;-77
2022/09/02 00:08:02;;;;;;;1.07;1.00;;;;;;;;;;5063661;28;20489;-75
2022/09/02 00:10:29;;;;;;;0.70;0.60;;;;;;;;;;5063491;28;20547;-76
2022/09/02 00:12:56;;;;;;;0.80;0.70;;;;;;;;;;5061966;28;20494;-76
2022/09/02 00:15:22;;;;;;;0.80;0.70;;;;;;;;;;5063636;28;20490;-76
2022/09/02 00:17:51;;;;;;;0.80;0.70;;;;;;;;;;5063702;28;20434;-76
2022/09/02 00:20:18;;;;;;;0.70;0.70;;;;;;;;;;5067544;28;20454;-76
2022/09/02 00:22:45;;;;;;;0.80;0.70;;;;;;;;;;5062945;28;20442;-76
2022/09/02 00:25:12;;;;;;;0.77;0.70;;;;;;;;;;5064792;28;20878;-76
2022/09/02 00:27:39;;;;;;;0.70;0.60;;;;;;;;;;5066733;28;20424;-77
2022/09/02 00:30:07;;;;;;;0.80;0.70;;;;;;;;;;5063713;28;20451;-75
2022/09/02 00:32:34;;;;;;;0.80;0.73;;;;;;;;;;5078650;28;20467;-77
2022/09/02 00:35:02;;;;;;;0.70;0.70;;;;;;;;;;5066457;28;20500;-76
2022/09/02 00:37:29;;;;;;;0.80;0.80;;;;;;;;;;5064865;28;20865;-76
2022/09/02 00:39:56;;;;;;;0.80;0.70;;;;;;;;;;5064834;28;20479;-76
2022/09/02 00:42:25;;;;;;;0.80;0.80;;;;;;;;;;5061995;28;20535;-76
2022/09/02 00:44:52;;;;;;;0.70;0.60;;;;;;;;;;5065017;28;20952;-75
2022/09/02 00:47:21;;;;;;;0.70;0.60;;;;;;;;;;5062270;28;20792;-76
2022/09/02 00:49:49;;;;;;;0.70;0.70;;;;;;;;;;5061779;28;20977;-75
2022/09/02 00:52:19;;;;;;;0.80;0.70;;;;;;;;;;5059076;28;20685;-76
2022/09/02 00:54:48;;;;;;;0.70;0.70;;;;;;;;;;5065644;28;20900;-76
2022/09/02 00:57:18;;;;;;;0.73;0.67;;;;;;;;;;5063543;28;20444;-76
2022/09/02 00:59:47;;;;;;;0.80;0.70;;;;;;;;;;5065293;28;20541;-76
2022/09/02 01:02:14;;;;;;;0.80;0.80;;;;;;;;;;5059305;28;20545;-76
2022/09/02 01:04:42;;;;;;;0.70;0.60;;;;;;;;;;5064636;28;20873;-76
2022/09/02 01:07:08;;;;;;;0.70;0.60;;;;;;;;;;5063362;28;20459;-76
2022/09/02 01:09:39;;;;;;;0.80;0.70;;;;;;;;;;5065458;28;20889;-75
2022/09/02 01:12:12;;;;;;;0.70;0.70;;;;;;;;;;5060928;28;20988;-76
2022/09/02 01:14:41;;;;;;;0.80;0.70;;;;;;;;;;5062610;28;20570;-76
2022/09/02 01:17:18;;;;;;;0.70;0.70;;;;;;;;;;5047456;28;20454;-75
2022/09/02 01:19:49;;;;;;;1.10;1.00;;;;;;;;;;5065626;28;20465;-75
2022/09/02 01:22:26;;;;;;;0.80;0.70;;;;;;;;;;5063925;28;20479;-76
2022/09/02 01:25:00;;;;;;;0.77;0.70;;;;;;;;;;5063096;28;20444;-76
2022/09/02 01:27:33;;;;;;;0.70;0.60;;;;;;;;;;5062382;28;21046;-76
2022/09/02 01:30:08;;;;;;;0.70;0.70;;;;;;;;;;5065026;28;20963;-76
2022/09/02 01:32:38;;;;;;;0.70;0.60;;;;;;;;;;5060626;28;20581;-76
2022/09/02 01:35:11;;;;;;;0.70;0.70;;;;;;;;;;5062885;28;21002;-76
2022/09/02 01:37:41;;;;;;;0.80;0.70;;;;;;;;;;5065399;28;20935;-76
2022/09/02 01:40:23;;;;;;;0.70;0.60;;;;;;;;;;5062881;28;20445;-75
2022/09/02 01:42:57;;;;;;;1.10;1.00;;;;;;;;;;5052805;28;20448;-76
2022/09/02 01:45:30;;;;;;;0.70;0.60;;;;;;;;;;5044978;28;20448;-76
2022/09/02 01:48:01;;;;;;;0.70;0.60;;;;;;;;;;5049087;28;20863;-76
2022/09/02 01:50:30;;;;;;;0.70;0.60;;;;;;;;;;5046229;28;20477;-76
2022/09/02 01:53:02;;;;;;;0.70;0.63;;;;;;;;;;5054219;28;20451;-76
2022/09/02 01:55:36;;;;;;;0.80;0.70;;;;;;;;;;5046866;28;20558;-76
2022/09/02 01:58:05;;;;;;;0.73;0.70;;;;;;;;;;5061253;28;20516;-76
2022/09/02 02:00:39;;;;;;;0.70;0.60;;;;;;;;;;5067995;28;20478;-75
2022/09/02 02:03:18;;;;;;;0.70;0.60;;;;;;;;;;5046940;28;20979;-75
2022/09/02 02:05:52;;;;;;;0.70;0.60;;;;;;;;;;5072120;28;20464;-76
2022/09/02 02:08:23;;;;;;;0.70;0.60;;;;;;;;;;5060217;28;20824;-76
2022/09/02 02:10:51;;;;;;;0.70;0.60;;;;;;;;;;5065080;28;20445;-76
2022/09/02 02:13:24;;;;;;;0.80;0.70;;;;;;;;;;5062769;28;20459;-76
2022/09/02 02:15:58;;;;;;;0.70;0.70;;;;;;;;;;5062599;28;20486;-76
2022/09/02 02:18:28;;;;;;;0.80;0.70;;;;;;;;;;5064413;28;20489;-76
2022/09/02 02:20:58;;;;;;;0.77;0.70;;;;;;;;;;5058123;28;20826;-74
2022/09/02 02:23:30;;;;;;;0.70;0.60;;;;;;;;;;5063568;28;20454;-75
2022/09/02 02:26:01;;;;;;;0.70;0.60;;;;;;;;;;5060163;28;20457;-75
2022/09/02 02:28:30;;;;;;;0.73;0.67;;;;;;;;;;5062338;28;20459;-76
2022/09/02 02:31:03;;;;;;;0.70;0.60;;;;;;;;;;5059833;28;20457;-75
2022/09/02 02:33:30;;;;;;;0.80;0.70;;;;;;;;;;5060010;28;20448;-76
2022/09/02 02:36:03;;;;;;;0.70;0.70;;;;;;;;;;5060043;28;20487;-75
2022/09/02 02:38:32;;;;;;;0.80;0.80;;;;;;;;;;5062779;28;20531;-76
2022/09/02 02:41:00;;;;;;;0.80;0.70;;;;;;;;;;5059543;28;21002;-75
2022/09/02 02:43:30;;;;;;;0.70;0.60;;;;;;;;;;5066681;28;20459;-76
2022/09/02 02:45:57;;;;;;;0.70;0.63;;;;;;;;;;5044900;28;20442;-75
2022/09/02 02:48:24;;;;;;;0.80;0.73;;;;;;;;;;5062403;28;20452;-76
2022/09/02 02:50:52;;;;;;;0.70;0.63;;;;;;;;;;5046061;28;20478;-76
2022/09/02 02:53:19;;;;;;;0.70;0.63;;;;;;;;;;5061304;28;20446;-76
2022/09/02 02:55:48;;;;;;;0.80;0.70;;;;;;;;;;5059779;28;20976;-76
2022/09/02 02:58:17;;;;;;;0.70;0.60;;;;;;;;;;5072292;28;20541;-75
2022/09/02 03:00:45;;;;;;;0.70;0.70;;;;;;;;;;5083607;28;20500;-75
2022/09/02 03:03:18;;;;;;;1.33;1.23;;;;;;;;;;5059884;28;20538;-75
2022/09/02 03:05:48;;;;;;;0.70;0.63;;;;;;;;;;5045361;28;21059;-75
2022/09/02 03:08:19;;;;;;;0.70;0.60;;;;;;;;;;5061973;28;20453;-76
2022/09/02 03:10:52;;;;;;;0.70;0.63;;;;;;;;;;5059286;28;20452;-75
2022/09/02 03:13:20;;;;;;;0.70;0.60;;;;;;;;;;5059579;28;20480;-75
2022/09/02 03:15:48;;;;;;;0.70;0.67;;;;;;;;;;5062076;28;20928;-76
2022/09/02 03:18:16;;;;;;;0.70;0.60;;;;;;;;;;5066554;28;20447;-76
2022/09/02 03:20:44;;;;;;;0.70;0.60;;;;;;;;;;5063110;28;20509;-76
2022/09/02 03:23:12;;;;;;;0.70;0.60;;;;;;;;;;5048220;28;20450;-75
2022/09/02 03:25:44;;;;;;;0.70;0.60;;;;;;;;;;5065267;28;20450;-76
2022/09/02 03:28:23;;;;;;;0.70;0.70;;;;;;;;;;5067832;28;20439;-76
2022/09/02 03:30:51;;;;;;;0.80;0.73;;;;;;;;;;5045844;28;20804;-76
2022/09/02 03:33:19;;;;;;;0.70;0.60;;;;;;;;;;5049771;28;20451;-76
2022/09/02 03:35:46;;;;;;;0.70;0.60;;;;;;;;;;5064659;28;20518;-77
2022/09/02 03:38:14;;;;;;;0.70;0.60;;;;;;;;;;5066019;28;20472;-76
2022/09/02 03:40:43;;;;;;;0.80;0.70;;;;;;;;;;5062653;28;20494;-76
2022/09/02 03:43:10;;;;;;;0.70;0.60;;;;;;;;;;5067263;28;20436;-76
2022/09/02 03:45:40;;;;;;;0.80;0.70;;;;;;;;;;5064335;28;20418;-76
2022/09/02 03:48:10;;;;;;;0.80;0.70;;;;;;;;;;5063868;28;20447;-77
2022/09/02 03:50:38;;;;;;;0.70;0.60;;;;;;;;;;5062974;28;20471;-76
2022/09/02 03:53:09;;;;;;;0.70;0.60;;;;;;;;;;5047324;28;20436;-76
2022/09/02 03:55:46;;;;;;;0.70;0.60;;;;;;;;;;5058049;28;20502;-76
2022/09/02 03:58:17;;;;;;;0.80;0.70;;;;;;;;;;5063825;28;20452;-76
2022/09/02 04:00:50;;;;;;;0.70;0.60;;;;;;;;;;5046514;28;20452;-76
2022/09/02 04:03:19;;;;;;;0.70;0.60;;;;;;;;;;5067849;28;20493;-77
2022/09/02 04:05:47;;;;;;;0.70;0.60;;;;;;;;;;5047111;28;20518;-76
2022/09/02 04:08:14;;;;;;;0.70;0.60;;;;;;;;;;5065614;28;20617;-76
2022/09/02 04:10:41;;;;;;;0.70;0.60;;;;;;;;;;5063342;28;20481;-76
2022/09/02 04:13:08;;;;;;;0.70;0.70;;;;;;;;;;5060503;28;20463;-77
2022/09/02 04:15:37;;;;;;;0.70;0.70;;;;;;;;;;5064336;28;20484;-76
2022/09/02 04:21:30;;;;;;;0.70;0.60;;;;;;;;;;5065397;28;20526;-75
2022/09/02 04:23:58;;;;;;;0.70;0.60;;;;;;;;;;5062946;28;20465;-75
2022/09/02 04:26:27;;;;;;;0.70;0.70;;;;;;;;;;5064964;28;20472;-75
2022/09/02 04:28:56;;;;;;;0.70;0.60;;;;;;;;;;5065264;28;20872;-76
2022/09/02 04:31:25;;;;;;;0.80;0.70;;;;;;;;;;5066895;28;20449;-76
2022/09/02 04:33:52;;;;;;;0.80;0.70;;;;;;;;;;5065339;28;20454;-76
2022/09/02 04:36:21;;;;;;;0.70;0.60;;;;;;;;;;5062616;28;20492;-75
2022/09/02 04:38:54;;;;;;;0.70;0.60;;;;;;;;;;5063578;28;20495;-76
2022/09/02 04:41:25;;;;;;;0.70;0.60;;;;;;;;;;5067030;28;20819;-76
2022/09/02 04:43:55;;;;;;;0.80;0.70;;;;;;;;;;5068589;28;20809;-76
2022/09/02 04:46:26;;;;;;;0.80;0.70;;;;;;;;;;5060204;28;20441;-76
2022/09/02 04:49:05;;;;;;;0.70;0.60;;;;;;;;;;5045574;28;20496;-75
2022/09/02 04:51:33;;;;;;;0.70;0.60;;;;;;;;;;5063425;28;20803;-76
2022/09/02 04:54:04;;;;;;;0.80;0.70;;;;;;;;;;5065316;28;20449;-76
2022/09/02 04:56:31;;;;;;;0.80;0.80;;;;;;;;;;5063412;28;20598;-76
2022/09/02 04:59:00;;;;;;;0.80;0.70;;;;;;;;;;5065438;28;20480;-75
2022/09/02 05:01:30;;;;;;;0.80;0.70;;;;;;;;;;5061407;28;20455;-75
2022/09/02 05:04:01;;;;;;;0.70;0.70;;;;;;;;;;5094871;28;20450;-76
2022/09/02 05:06:34;;;;;;;0.77;0.67;;;;;;;;;;5062990;28;20456;-76
2022/09/02 05:09:09;;;;;;;0.70;0.63;;;;;;;;;;5064523;28;20934;-75
2022/09/02 05:11:37;;;;;;;0.80;0.80;;;;;;;;;;5061416;28;20455;-76
2022/09/02 05:14:05;;;;;;;0.70;0.70;;;;;;;;;;5065909;28;20490;-76
2022/09/02 05:16:38;;;;;;;0.70;0.70;;;;;;;;;;5048052;28;21125;-76
2022/09/02 05:19:12;;;;;;;0.70;0.60;;;;;;;;;;5065315;28;20829;-75
2022/09/02 05:21:45;;;;;;;0.80;0.70;;;;;;;;;;5049211;28;20471;-76
2022/09/02 05:24:22;;;;;;;0.70;0.70;;;;;;;;;;5061874;28;20454;-76
2022/09/02 05:26:53;;;;;;;0.70;0.67;;;;;;;;;;5063135;28;20474;-76
2022/09/02 05:29:22;;;;;;;0.70;0.63;;;;;;;;;;5063282;28;20469;-76
2022/09/02 05:31:49;;;;;;;0.77;0.70;;;;;;;;;;5062266;28;20983;-75
2022/09/02 05:34:18;;;;;;;0.70;0.70;;;;;;;;;;5063617;28;20437;-76
2022/09/02 05:36:47;;;;;;;0.80;0.70;;;;;;;;;;5059996;28;20504;-75
2022/09/02 05:39:13;;;;;;;0.80;0.70;;;;;;;;;;5060659;28;20982;-76
2022/09/02 05:41:42;;;;;;;0.80;0.80;;;;;;;;;;5064117;28;20486;-75
2022/09/02 05:44:12;;;;;;;0.70;0.60;;;;;;;;;;5060994;28;20444;-74
2022/09/02 05:46:39;;;;;;;0.70;0.60;;;;;;;;;;5080802;28;20470;-75
2022/09/02 05:49:16;;;;;;;0.70;0.70;;;;;;;;;;5062605;28;20475;-76
2022/09/02 05:51:52;;;;;;;0.70;0.70;;;;;;;;;;5045205;28;20481;-76
2022/09/02 05:54:29;;;;;;;0.80;0.70;;;;;;;;;;5067583;28;20473;-76
2022/09/02 05:57:00;;;;;;;0.80;0.80;;;;;;;;;;5045778;28;20472;-76
2022/09/02 05:59:29;;;;;;;0.80;0.80;;;;;;;;;;5063236;28;20451;-75
2022/09/02 06:01:58;;;;;;;0.80;0.77;;;;;;;;;;5061092;28;20461;-75
2022/09/02 06:04:27;;;;;;;0.80;0.70;;;;;;;;;;5064010;28;20806;-76
2022/09/02 06:06:55;;;;;;;0.80;0.70;;;;;;;;;;5064009;28;20476;-76
2022/09/02 06:09:22;;;;;;;0.80;0.70;;;;;;;;;;5060514;28;20460;-76
2022/09/02 06:11:50;;;;;;;0.70;0.70;;;;;;;;;;5064851;28;20791;-76
2022/09/02 06:14:26;;;;;;;0.80;0.70;;;;;;;;;;5062818;28;20460;-77
2022/09/02 06:16:55;;;;;;;0.80;0.80;;;;;;;;;;5061981;28;20477;-76
2022/09/02 06:19:31;;;;;;;0.80;0.70;;;;;;;;;;5064153;28;20874;-77
2022/09/02 06:22:01;;;;;;;0.90;0.90;;;;;;;;;;5060916;28;20475;-77
2022/09/02 06:24:31;;;;;;;0.80;0.80;;;;;;;;;;5064805;28;20590;-77
2022/09/02 06:27:06;;;;;;;1.00;0.90;;;;;;;;;;5050113;28;20483;-78
2022/09/02 06:29:38;;;;;;;0.80;0.70;;;;;;;;;;5060986;28;20451;-76
2022/09/02 06:32:08;;;;;;;0.80;0.70;;;;;;;;;;5060130;28;20887;-75
2022/09/02 06:34:35;;;;;;;0.80;0.73;;;;;;;;;;5064435;28;21033;-75
2022/09/02 06:37:03;;;;;;;0.80;0.70;;;;;;;;;;5058439;28;20510;-77
2022/09/02 06:39:37;;;;;;;0.80;0.73;;;;;;;;;;5062252;28;20520;-76
2022/09/02 06:42:04;;;;;;;0.80;0.70;;;;;;;;;;5061985;28;20456;-75
2022/09/02 06:44:44;;;;;;;0.80;0.80;;;;;;;;;;5063818;28;20446;-75
2022/09/02 06:47:12;;;;;;;1.10;1.00;;;;;;;;;;5051837;28;20448;-75
2022/09/02 06:49:39;;;;;;;0.80;0.70;;;;;;;;;;5047308;28;20496;-74
2022/09/02 06:52:07;;;;;;;0.80;0.73;;;;;;;;;;5061511;28;20469;-75
2022/09/02 06:54:37;;;;;;;0.80;0.80;;;;;;;;;;5091011;28;20462;-75
2022/09/02 06:57:09;;;;;;;0.80;0.80;;;;;;;;;;5063970;28;20471;-75
2022/09/02 06:59:37;;;;;;;0.80;0.80;;;;;;;;;;5048760;28;20480;-75
2022/09/02 07:02:06;;;;;;;1.10;1.00;;;;;;;;;;5050480;28;20962;-75
2022/09/02 07:07:23;;;;;;;0.70;0.60;;;;;;;;;;5067994;28;20464;-75
2022/09/02 07:09:54;;;;;;;0.80;0.80;;;;;;;;;;5051937;28;20452;-75
2022/09/02 07:12:21;;;;;;;0.90;0.90;;;;;;;;;;5102302;28;20796;-74
2022/09/02 07:14:57;;;;;;;0.73;0.70;;;;;;;;;;5064477;28;20454;-75
2022/09/02 07:17:36;;;;;;;0.80;0.70;;;;;;;;;;5064697;28;20905;-75
2022/09/02 07:20:08;;;;;;;0.80;0.73;;;;;;;;;;5063534;28;20459;-74
2022/09/02 07:22:40;;;;;;;0.83;0.83;;;;;;;;;;5072091;28;20479;-75
2022/09/02 07:25:09;;;;;;;0.80;0.80;;;;;;;;;;5058844;28;20448;-75
2022/09/02 07:27:37;;;;;;;0.80;0.80;;;;;;;;;;5056471;28;20980;-75
2022/09/02 07:30:05;;;;;;;0.80;0.73;;;;;;;;;;5072831;28;20457;-75
2022/09/02 07:32:35;;;;;;;1.47;1.37;;;;;;;;;;5070230;28;20498;-77
2022/09/02 07:35:06;;;;;;;1.30;1.20;;;;;;;;;;5046604;28;20542;-74
2022/09/02 07:37:34;;;;;;;0.80;0.70;;;;;;;;;;5055667;28;20558;-76
2022/09/02 07:40:04;;;;;;;0.80;0.80;;;;;;;;;;5066667;28;20442;-76
2022/09/02 07:42:31;;;;;;;0.80;0.70;;;;;;;;;;5069235;28;20448;-78
2022/09/02 07:44:58;;;;;;;0.80;0.70;;;;;;;;;;5064168;28;20435;-74
2022/09/02 07:47:26;;;;;;;0.90;0.80;;;;;;;;;;5055274;28;20815;-76
2022/09/02 07:49:52;;;;;;;0.80;0.70;;;;;;;;;;5062667;28;20453;-75
2022/09/02 07:52:41;;;;;;;0.80;0.70;;;;;;;;;;5073681;28;20446;-75
2022/09/02 07:55:09;;;;;;;0.80;0.80;;;;;;;;;;5052630;28;20440;-76
2022/09/02 07:57:41;;;;;;;0.90;0.70;;;;;;;;;;5064739;28;20472;-79
2022/09/02 08:00:12;;;;;;;1.00;0.90;;;;;;;;;;5068093;28;20534;-74
2022/09/02 08:02:45;;;;;;;0.80;0.80;;;;;;;;;;5065529;28;21002;-75
2022/09/02 08:05:18;;;;;;;0.80;0.80;;;;;;;;;;5065084;28;20461;-74
2022/09/02 08:07:46;;;;;;;0.80;0.70;;;;;;;;;;5046219;28;20979;-76
2022/09/02 08:10:15;;;;;;;0.80;0.77;;;;;;;;;;5052641;28;20447;-76
2022/09/02 08:12:43;;;;;;;1.67;1.57;;;;;;;;;;5066602;28;20472;-75
2022/09/02 08:15:11;;;;;;;0.77;0.70;;;;;;;;;;5106027;28;20455;-76
2022/09/02 08:17:39;;;;;;;0.80;0.77;;;;;;;;;;5074021;28;20555;-75
2022/09/02 08:20:07;;;;;;;0.80;0.70;;;;;;;;;;5073361;28;20488;-75
2022/09/02 08:22:38;;;;;;;0.80;0.80;;;;;;;;;;5071384;28;20458;-77
2022/09/02 08:25:07;;;;;;;0.80;0.70;;;;;;;;;;5061732;28;20455;-77
2022/09/02 08:27:35;;;;;;;0.80;0.80;;;;;;;;;;5065462;28;20431;-78
2022/09/02 08:30:02;;;;;;;1.07;1.00;;;;;;;;;;5066453;28;20450;-78
2022/09/02 08:32:31;;;;;;;0.80;0.70;;;;;;;;;;5064846;28;20443;-74
2022/09/02 08:35:01;;;;;;;0.80;0.73;;;;;;;;;;5063066;28;20867;-76
2022/09/02 08:37:30;;;;;;;0.80;0.70;;;;;;;;;;5060968;28;20479;-76
2022/09/02 08:39:57;;;;;;;0.80;0.70;;;;;;;;;;5064170;28;20455;-75
2022/09/02 08:42:30;;;;;;;1.23;1.00;;;;;;;;;;5069120;28;20432;-79
2022/09/02 08:44:59;;;;;;;0.93;0.87;;;;;;;;;;5074218;28;20458;-77
2022/09/02 08:47:31;;;;;;;1.10;0.80;;;;;;;;;;5057255;28;20478;-76
2022/09/02 08:49:59;;;;;;;0.87;0.87;;;;;;;;;;5058773;28;20838;-77
2022/09/02 08:52:28;;;;;;;0.80;0.60;;;;;;;;;;5066135;28;20882;-76
2022/09/02 08:54:55;;;;;;;0.80;0.80;;;;;;;;;;5050608;28;20783;-77
2022/09/02 08:57:26;;;;;;;0.80;0.70;;;;;;;;;;5055043;28;20999;-77
2022/09/02 08:59:57;;;;;;;0.70;0.60;;;;;;;;;;5045236;28;20475;-79
2022/09/02 09:02:28;;;;;;;0.80;0.70;;;;;;;;;;5046054;28;20430;-75
2022/09/02 09:05:01;;;;;;;0.80;0.70;;;;;;;;;;5069114;28;20778;-75
2022/09/02 09:07:33;;;;;;;1.00;0.90;;;;;;;;;;5058096;28;20418;-74
2022/09/02 09:10:04;;;;;;;0.80;0.70;;;;;;;;;;5064113;28;20414;-74
2022/09/02 09:12:36;;;;;;;1.20;1.10;;;;;;;;;;5072518;28;20891;-74
2022/09/02 09:15:10;;;;;;;0.80;0.70;;;;;;;;;;5057144;28;20425;-76
2022/09/02 09:17:43;;;;;;;1.17;1.07;;;;;;;;;;5058791;28;20517;-74
2022/09/02 09:20:14;;;;;;;0.70;0.60;;;;;;;;;;5060771;28;20423;-74
2022/09/02 09:22:41;;;;;;;1.10;1.00;;;;;;;;;;5066581;28;20427;-74
2022/09/02 09:25:10;;;;;;;0.80;0.70;;;;;;;;;;5063749;28;20954;-73
2022/09/02 09:27:37;;;;;;;0.70;0.70;;;;;;;;;;5062110;28;20458;-74
2022/09/02 09:30:07;;;;;;;0.80;0.80;;;;;;;;;;5070881;28;20451;-74
2022/09/02 09:32:41;;;;;;;1.30;1.13;;;;;;;;;;5059097;28;20443;-78
2022/09/02 09:35:17;;;;;;;0.70;0.60;;;;;;;;;;5115836;27;20646;-78
2022/09/02 09:37:46;;;;;;;0.97;0.87;;;;;;;;;;5106100;28;20471;-74
2022/09/02 09:40:25;;;;;;;0.80;0.70;;;;;;;;;;5098189;28;20421;-76
2022/09/02 09:42:55;;;;;;;0.80;0.60;;;;;;;;;;5106487;28;20579;-75
2022/09/02 09:45:27;;;;;;;6.00;1.87;;;;;;;;;;5101825;28;20425;-75
2022/09/02 09:48:06;;;;;;;0.70;0.60;;;;;;;;;;5104262;28;21052;-74
2022/09/02 09:50:34;;;;;;;0.97;0.67;;;;;;;;;;5099194;28;20494;-75
2022/09/02 09:53:12;;;;;;;0.70;0.60;;;;;;;;;;5084439;28;20474;-74
2022/09/02 09:55:49;;;;;;;0.70;0.50;;;;;;;;;;5091238;28;20502;-75
2022/09/02 09:58:15;;;;;;;0.70;0.50;;;;;;;;;;5096848;28;20448;-77
2022/09/02 10:00:42;;;;;;;0.70;0.50;;;;;;;;;;5099339;28;20417;-75
2022/09/02 10:03:19;;;;;;;0.70;0.60;;;;;;;;;;5109173;28;20826;-75
2022/09/02 10:05:51;;;;;;;0.70;0.50;;;;;;;;;;5109314;28;20561;-76
2022/09/02 10:08:20;;;;;;;0.97;0.80;;;;;;;;;;5105846;28;20421;-75
2022/09/02 10:10:54;;;;;;;0.70;0.60;;;;;;;;;;5091005;28;20476;-75
2022/09/02 10:13:22;;;;;;;0.80;0.60;;;;;;;;;;5090392;28;20470;-76
2022/09/02 10:15:56;;;;;;;0.70;0.50;;;;;;;;;;5090544;28;20521;-74
2022/09/02 10:18:27;;;;;;;0.70;0.60;;;;;;;;;;5101074;28;20464;-77
2022/09/02 10:21:02;;;;;;;0.70;0.50;;;;;;;;;;5099264;28;20449;-73
2022/09/02 10:23:46;;;;;;;1.50;0.90;;;;;;;;;;5100742;28;20427;-72
2022/09/02 10:26:21;;;;;;;0.80;0.50;;;;;;;;;;5095441;28;20430;-74
2022/09/02 10:29:05;;;;;;;0.80;0.50;;;;;;;;;;5092637;28;20536;-77
2022/09/02 10:31:36;;;;;;;0.80;0.50;;;;;;;;;;5082152;28;20426;-75
2022/09/02 10:34:10;;;;;;;0.80;0.60;;;;;;;;;;5090303;28;20552;-74
2022/09/02 10:36:43;;;;;;;0.80;0.60;;;;;;;;;;5092837;28;20466;-74
2022/09/02 10:39:15;;;;;;;0.80;0.60;;;;;;;;;;5094986;28;20917;-74
2022/09/02 10:41:46;;;;;;;0.70;0.50;;;;;;;;;;5102504;28;20936;-75
2022/09/02 10:44:19;;;;;;;0.77;0.60;;;;;;;;;;5098318;28;20429;-75
2022/09/02 10:46:51;;;;;;;0.80;0.60;;;;;;;;;;5097921;28;20423;-73
2022/09/02 10:49:23;;;;;;;1.13;1.03;;;;;;;;;;5082769;28;20539;-74
2022/09/02 10:51:56;;;;;;;0.80;0.67;;;;;;;;;;5082218;28;20962;-75
2022/09/02 10:54:30;;;;;;;0.70;0.60;;;;;;;;;;5067895;28;20458;-76
2022/09/02 10:57:10;;;;;;;1.00;0.90;;;;;;;;;;5095616;28;20460;-76
2022/09/02 10:59:40;;;;;;;0.80;0.60;;;;;;;;;;5084739;28;21000;-78
2022/09/02 11:02:12;;;;;;;0.73;0.60;;;;;;;;;;5077464;28;20430;-74
2022/09/02 11:04:41;;;;;;;0.80;0.60;;;;;;;;;;5087239;28;20462;-76
2022/09/02 11:07:13;;;;;;;0.70;0.60;;;;;;;;;;5089820;28;21047;-76
2022/09/02 11:09:44;;;;;;;0.80;0.70;;;;;;;;;;5088394;28;20423;-77
2022/09/02 11:12:15;;;;;;;0.70;0.60;;;;;;;;;;5102797;28;20865;-75
2022/09/02 11:14:48;;;;;;;0.70;0.60;;;;;;;;;;5086004;28;20493;-75
2022/09/02 11:17:18;;;;;;;0.80;0.70;;;;;;;;;;5087972;28;20446;-77
2022/09/02 11:19:48;;;;;;;0.80;0.60;;;;;;;;;;5084424;28;20435;-74
2022/09/02 11:22:21;;;;;;;0.70;0.60;;;;;;;;;;5087173;28;20454;-75
2022/09/02 11:24:55;;;;;;;0.70;0.60;;;;;;;;;;5094982;28;20516;-74
2022/09/02 11:27:29;;;;;;;0.73;0.60;;;;;;;;;;5080319;28;20489;-74
2022/09/02 11:30:12;;;;;;;1.10;1.00;;;;;;;;;;5078175;28;20437;-75
2022/09/02 11:32:42;;;;;;;0.80;0.70;;;;;;;;;;5085758;28;20496;-75
2022/09/02 11:35:11;;;;;;;0.70;0.60;;;;;;;;;;5073922;28;20479;-74
2022/09/02 11:37:42;;;;;;;0.80;0.63;;;;;;;;;;5079380;28;20454;-78
2022/09/02 11:40:13;;;;;;;0.70;0.60;;;;;;;;;;5068191;28;20542;-74
2022/09/02 11:43:02;;;;;;;0.80;0.70;;;;;;;;;;5072467;28;20457;-74
2022/09/02 11:45:55;;;;;;;1.00;0.77;;;;;;;;;;5065713;28;20434;-74
2022/09/02 11:48:40;;;;;;;0.70;0.60;;;;;;;;;;5056017;28;20442;-75
2022/09/02 11:51:22;;;;;;;0.80;0.70;;;;;;;;;;5085751;28;20453;-74
2022/09/02 11:53:51;;;;;;;1.23;0.80;;;;;;;;;;5074497;28;20479;-73
2022/09/02 11:56:24;;;;;;;0.83;0.80;;;;;;;;;;5058733;28;20435;-77
2022/09/02 11:58:54;;;;;;;2.80;1.10;;;;;;;;;;5073261;28;20500;-76
2022/09/02 12:01:22;;;;;;;0.73;0.60;;;;;;;;;;5077522;28;20479;-73
2022/09/02 12:03:53;;;;;;;0.70;0.60;;;;;;;;;;5083411;28;20430;-75
2022/09/02 12:07:09;;;;;;;0.80;0.60;;;;;;;;;;5083807;28;20568;-78
2022/09/02 12:09:45;;;;;;;1.30;1.20;;;;;;;;;;5081237;28;20930;-74
2022/09/02 12:12:28;;;;;;;0.80;0.70;;;;;;;;;;5089107;28;20472;-77
2022/09/02 12:15:08;;;;;;;0.70;0.60;;;;;;;;;;5092088;28;20477;-76
2022/09/02 12:17:59;;;;;;;0.80;0.70;;;;;;;;;;5074702;28;20449;-74
2022/09/02 12:20:44;;;;;;;0.70;0.60;;;;;;;;;;5073465;28;20855;-74
2022/09/02 12:23:31;;;;;;;0.80;0.70;;;;;;;;;;5075353;28;20439;-74
2022/09/02 12:26:05;;;;;;;0.80;0.67;;;;;;;;;;5064404;28;20451;-75
2022/09/02 12:28:32;;;;;;;0.70;0.60;;;;;;;;;;5082210;28;20454;-75
2022/09/02 12:31:11;;;;;;;0.80;0.70;;;;;;;;;;5082600;28;20499;-75
2022/09/02 12:33:39;;;;;;;0.70;0.60;;;;;;;;;;5085533;28;20450;-73
2022/09/02 12:36:07;;;;;;;0.80;0.70;;;;;;;;;;5081449;28;20486;-77
2022/09/02 12:38:35;;;;;;;0.80;0.60;;;;;;;;;;5081596;28;20462;-77
2022/09/02 12:41:13;;;;;;;0.80;0.70;;;;;;;;;;5078364;28;20437;-76
2022/09/02 12:43:59;;;;;;;0.80;0.60;;;;;;;;;;5077706;28;20441;-79
2022/09/02 12:46:44;;;;;;;0.80;0.60;;;;;;;;;;5093661;28;20466;-74
2022/09/02 12:49:22;;;;;;;0.90;0.70;;;;;;;;;;5075551;28;20490;-75
2022/09/02 12:51:53;;;;;;;0.80;0.70;;;;;;;;;;5089012;28;20442;-76
2022/09/02 12:54:23;;;;;;;0.90;0.80;;;;;;;;;;5071208;28;20492;-73
2022/09/02 12:56:51;;;;;;;0.80;0.70;;;;;;;;;;5084558;28;20481;-74
2022/09/02 12:59:24;;;;;;;0.70;0.60;;;;;;;;;;5083161;28;20442;-74
2022/09/02 13:01:59;;;;;;;0.80;0.80;;;;;;;;;;5084877;28;20825;-73
2022/09/02 13:04:31;;;;;;;2.77;0.80;;;;;;;;;;5082028;28;20442;-76
2022/09/02 13:07:20;;;;;;;0.97;0.90;;;;;;;;;;5080536;28;20462;-76
2022/09/02 13:09:53;;;;;;;0.90;0.80;;;;;;;;;;5072919;28;20455;-76
2022/09/02 13:12:35;;;;;;;0.80;0.60;;;;;;;;;;5074241;28;20438;-74
2022/09/02 13:15:24;;;;;;;0.70;0.60;;;;;;;;;;5065365;28;20826;-74
2022/09/02 13:18:07;;;;;;;1.20;0.90;;;;;;;;;;5091990;28;20487;-75
2022/09/02 13:21:03;;;;;;;0.70;0.63;;;;;;;;;;5090961;28;20493;-73
2022/09/02 13:23:48;;;;;;;0.90;0.80;;;;;;;;;;5081461;28;20437;-75
2022/09/02 13:26:24;;;;;;;0.80;0.70;;;;;;;;;;5084382;28;20426;-75
2022/09/02 13:29:27;;;;;;;0.80;0.70;;;;;;;;;;5083885;28;20446;-77
2022/09/02 13:32:09;;;;;;;0.73;0.60;;;;;;;;;;5092999;28;20426;-73
2022/09/02 13:34:40;;;;;;;1.73;0.80;;;;;;;;;;5079195;28;20585;-77
2022/09/02 13:37:25;;;;;;;1.00;0.90;;;;;;;;;;5087880;28;20470;-78
2022/09/02 13:39:52;;;;;;;1.43;0.70;;;;;;;;;;5074207;28;20550;-75
2022/09/02 13:42:21;;;;;;;0.80;0.60;;;;;;;;;;5079489;28;20439;-78
2022/09/02 13:44:50;;;;;;;0.87;0.80;;;;;;;;;;5079646;28;20432;-74
2022/09/02 13:47:21;;;;;;;1.67;1.10;;;;;;;;;;5079930;28;20485;-76
2022/09/02 13:49:50;;;;;;;0.80;0.60;;;;;;;;;;5084180;28;20435;-76
2022/09/02 13:52:18;;;;;;;0.77;0.63;;;;;;;;;;5074837;28;20496;-74
2022/09/02 13:54:53;;;;;;;0.70;0.50;;;;;;;;;;5089098;28;20463;-75
2022/09/02 13:57:22;;;;;;;1.00;0.90;;;;;;;;;;5072784;28;20431;-72
2022/09/02 13:59:52;;;;;;;0.80;0.70;;;;;;;;;;5088204;28;20530;-74
2022/09/02 14:02:23;;;;;;;1.00;0.90;;;;;;;;;;5089144;28;20453;-75
2022/09/02 14:04:53;;;;;;;0.97;0.87;;;;;;;;;;5082836;28;20426;-75
2022/09/02 14:07:23;;;;;;;0.80;0.60;;;;;;;;;;5089189;28;20515;-74
2022/09/02 14:09:50;;;;;;;0.80;0.60;;;;;;;;;;5085900;28;20846;-75
2022/09/02 14:12:17;;;;;;;0.80;0.60;;;;;;;;;;5082489;28;20495;-73
2022/09/02 14:14:45;;;;;;;0.73;0.60;;;;;;;;;;5081671;28;20458;-73
2022/09/02 14:17:20;;;;;;;0.90;0.60;;;;;;;;;;5084138;28;20458;-74
2022/09/02 14:19:49;;;;;;;0.80;0.70;;;;;;;;;;5079278;28;20449;-75
2022/09/02 14:22:23;;;;;;;0.90;0.60;;;;;;;;;;5068282;28;20516;-74
2022/09/02 14:24:51;;;;;;;1.27;1.17;;;;;;;;;;5088676;28;20509;-74
2022/09/02 14:27:19;;;;;;;0.80;0.50;;;;;;;;;;5090625;28;20514;-74
2022/09/02 14:29:49;;;;;;;0.80;0.50;;;;;;;;;;5071342;28;20493;-74
2022/09/02 14:32:20;;;;;;;0.80;0.60;;;;;;;;;;5069965;28;20445;-74
2022/09/02 14:34:47;;;;;;;0.80;0.70;;;;;;;;;;5077490;28;20477;-75
2022/09/02 14:37:18;;;;;;;1.13;0.93;;;;;;;;;;5088964;28;20849;-76
2022/09/02 14:39:52;;;;;;;0.80;0.60;;;;;;;;;;5082414;28;20930;-76
2022/09/02 14:42:20;;;;;;;0.80;0.70;;;;;;;;;;5068450;28;20962;-74
2022/09/02 14:44:47;;;;;;;0.80;0.67;;;;;;;;;;5084473;28;20925;-75
2022/09/02 14:47:16;;;;;;;1.10;1.00;;;;;;;;;;5088220;28;20440;-75
2022/09/02 14:49:49;;;;;;;1.97;1.10;;;;;;;;;;5085364;28;20453;-74
2022/09/02 14:52:19;;;;;;;0.80;0.70;;;;;;;;;;5087124;28;20456;-76
2022/09/02 14:54:49;;;;;;;1.00;0.90;;;;;;;;;;5089002;28;20497;-74
2022/09/02 14:57:20;;;;;;;1.10;1.00;;;;;;;;;;5090164;28;20448;-76
2022/09/02 14:59:47;;;;;;;0.80;0.60;;;;;;;;;;5093848;28;20442;-73
2022/09/02 15:02:28;;;;;;;0.70;0.60;;;;;;;;;;5089006;28;20456;-74
2022/09/02 15:04:56;;;;;;;0.80;0.63;;;;;;;;;;5093712;28;20435;-74
2022/09/02 15:07:25;;;;;;;0.70;0.60;;;;;;;;;;5090210;28;20480;-73
2022/09/02 15:09:52;;;;;;;0.80;0.60;;;;;;;;;;5082012;28;20499;-73
2022/09/02 15:12:23;;;;;;;1.10;1.00;;;;;;;;;;5080869;28;20499;-76
2022/09/02 15:14:50;;;;;;;1.40;1.30;;;;;;;;;;5084371;28;20923;-73